Time;durP1;ratioP1;P1;durP2;ratioP2;P2;SDS_P1;SDS_P2;PMS_P1;PMS_P2;Temp;Humidity;BMP_temperature;BMP_pressure;BME280_temperature;BME280_humidity;BME280_pressure;Samples;Min_cycle;Max_cycle;Signal;HPM_P1;HPM_P2
2022/08/17 00:00:18;;;;;;;11.40;9.93;;;25.20;78.80;;;;;;4729843;30;20045;-90
2022/08/17 00:03:17;;;;;;;11.63;10.50;;;25.20;78.80;;;;;;4723818;30;20040;-90
2022/08/17 00:06:12;;;;;;;;;;;;;;;;;;;;;
2022/08/17 00:09:17;;;;;;;11.70;10.65;;;25.10;78.80;;;;;;4761417;30;20169;-90
2022/08/17 00:11:46;;;;;;;11.02;10.00;;;25.10;79.00;;;;;;4757639;29;20049;-92
2022/08/17 00:14:18;;;;;;;13.60;12.30;;;25.10;79.10;;;;;;4808683;29;20041;-92
2022/08/17 00:17:09;;;;;;;12.65;11.45;;;25.00;79.10;;;;;;4810222;29;20027;-91
2022/08/17 00:20:07;;;;;;;11.52;10.52;;;25.00;79.30;;;;;;4805854;29;20030;-93
2022/08/17 00:23:09;;;;;;;;;;;;;;;;;;;;;
2022/08/17 00:25:42;;;;;;;12.07;10.82;;;25.10;79.30;;;;;;4810203;29;20162;-90
2022/08/17 00:28:14;;;;;;;11.73;10.57;;;25.10;79.20;;;;;;4797198;29;20082;-91
2022/08/17 00:30:54;;;;;;;10.90;9.95;;;25.10;79.00;;;;;;4805463;29;20019;-91
2022/08/17 00:36:41;;;;;;;12.07;10.95;;;25.20;79.00;;;;;;4832642;29;20023;-92
2022/08/17 00:39:07;;;;;;;12.25;10.60;;;25.20;78.90;;;;;;4825816;29;20106;-90
2022/08/17 00:41:37;;;;;;;12.50;11.18;;;25.20;78.90;;;;;;4803315;29;20054;-91
2022/08/17 00:44:11;;;;;;;14.07;10.82;;;25.10;78.80;;;;;;4817306;29;20059;-90
2022/08/17 00:47:20;;;;;;;11.55;10.30;;;25.10;78.80;;;;;;4806640;29;20022;-92
2022/08/17 00:50:09;;;;;;;;;;;;;;;;;;;;;
2022/08/17 00:53:15;;;;;;;;;;;;;;;;;;;;;
2022/08/17 00:55:49;;;;;;;11.77;10.70;;;25.00;78.90;;;;;;4811190;29;20805;-88
2022/08/17 00:58:20;;;;;;;11.88;10.77;;;25.00;79.00;;;;;;4766751;29;20043;-90
2022/08/17 01:01:00;;;;;;;13.73;12.20;;;24.90;79.00;;;;;;4796699;29;20023;-90
2022/08/17 01:03:51;;;;;;;12.20;11.02;;;24.90;79.10;;;;;;4799250;29;20133;-89
2022/08/17 01:06:23;;;;;;;11.73;10.60;;;24.90;79.10;;;;;;4822917;29;20047;-91
2022/08/17 01:09:13;;;;;;;12.30;11.00;;;24.90;79.00;;;;;;4794813;29;20034;-89
2022/08/17 01:12:00;;;;;;;;;;;;;;;;;;;;;
2022/08/17 01:14:42;;;;;;;13.35;12.15;;;24.90;79.00;;;;;;4811923;29;20046;-90
2022/08/17 01:17:11;;;;;;;12.82;11.60;;;24.80;79.30;;;;;;4798255;29;20037;-90
2022/08/17 01:19:50;;;;;;;12.55;11.32;;;24.70;79.60;;;;;;4812241;29;20022;-90
2022/08/17 01:22:21;;;;;;;11.98;10.88;;;24.70;79.60;;;;;;4806467;29;20031;-89
2022/08/17 01:24:59;;;;;;;12.35;11.15;;;24.70;79.60;;;;;;4809499;29;20372;-89
2022/08/17 01:27:42;;;;;;;;;;;;;;;;;;;;;
2022/08/17 01:33:10;;;;;;;13.23;11.82;;;24.70;79.80;;;;;;4809482;29;20427;-91
2022/08/17 01:35:47;;;;;;;13.55;12.15;;;24.70;79.80;;;;;;4779753;29;20507;-91
2022/08/17 01:38:22;;;;;;;14.85;13.20;;;24.70;80.00;;;;;;4793533;29;20027;-90
2022/08/17 01:41:04;;;;;;;14.07;12.60;;;24.60;80.10;;;;;;4794118;29;20437;-89
2022/08/17 01:43:38;;;;;;;14.93;13.50;;;24.60;80.40;;;;;;4779801;29;20104;-88
2022/08/17 01:46:19;;;;;;;13.85;12.50;;;24.60;81.00;;;;;;4808461;29;20080;-89
2022/08/17 01:49:01;;;;;;;14.38;12.93;;;24.50;80.60;;;;;;4804383;29;20030;-91
2022/08/17 01:51:50;;;;;;;13.20;11.95;;;24.40;80.70;;;;;;4806929;29;20031;-90
2022/08/17 01:54:51;;;;;;;13.50;12.23;;;24.40;80.90;;;;;;4793510;29;20171;-89
2022/08/17 01:58:12;;;;;;;;;;;;;;;;;;;;;
2022/08/17 02:03:41;;;;;;;13.85;12.50;;;24.40;80.80;;;;;;4827638;29;20595;-91
2022/08/17 02:06:10;;;;;;;14.27;12.88;;;24.40;80.70;;;;;;4824970;29;20061;-92
2022/08/17 02:08:46;;;;;;;;;;;;;;;;;;;;;
2022/08/17 02:11:24;;;;;;;14.35;12.93;;;24.40;81.00;;;;;;4811448;29;20481;-90
2022/08/17 02:13:54;;;;;;;14.82;13.20;;;24.40;80.90;;;;;;4795506;29;20088;-89
2022/08/17 02:16:33;;;;;;;14.52;13.02;;;24.40;81.00;;;;;;4807003;29;20053;-90
2022/08/17 02:19:01;;;;;;;13.38;12.18;;;24.40;80.90;;;;;;4812326;29;20022;-91
2022/08/17 02:21:42;;;;;;;;;;;;;;;;;;;;;
2022/08/17 02:24:20;;;;;;;13.68;12.38;;;24.30;81.20;;;;;;4809753;29;20026;-90
2022/08/17 02:27:00;;;;;;;13.80;12.32;;;24.30;81.30;;;;;;4810075;29;20031;-90
2022/08/17 02:30:06;;;;;;;13.77;12.48;;;24.30;81.30;;;;;;4802726;29;20061;-91
2022/08/17 02:32:40;;;;;;;12.32;11.15;;;24.30;81.40;;;;;;4780278;29;20134;-90
2022/08/17 02:35:07;;;;;;;13.27;12.05;;;24.30;81.30;;;;;;4815449;29;20043;-89
2022/08/17 02:37:37;;;;;;;14.23;12.93;;;24.30;81.20;;;;;;4809236;29;20034;-89
2022/08/17 02:40:03;;;;;;;14.40;12.93;;;24.30;81.10;;;;;;4806305;29;20030;-88
2022/08/17 02:42:35;;;;;;;13.60;12.25;;;24.30;81.00;;;;;;4803989;29;20033;-88
2022/08/17 02:45:02;;;;;;;14.90;13.50;;;24.30;81.10;;;;;;4814542;29;20011;-90
2022/08/17 02:47:34;;;;;;;13.70;11.82;;;24.20;81.20;;;;;;4814301;29;20039;-90
2022/08/17 02:50:18;;;;;;;13.90;12.60;;;24.30;81.30;;;;;;4830344;29;20018;-90
2022/08/17 02:52:46;;;;;;;13.32;12.23;;;24.30;81.30;;;;;;4828321;29;20029;-88
2022/08/17 02:55:17;;;;;;;13.95;12.57;;;24.20;81.30;;;;;;4802423;29;20051;-89
2022/08/17 02:57:44;;;;;;;15.07;13.65;;;24.20;81.40;;;;;;4794470;29;20034;-89
2022/08/17 03:00:20;;;;;;;13.30;12.02;;;24.20;81.50;;;;;;4809829;29;20030;-89
2022/08/17 03:02:48;;;;;;;15.80;13.13;;;24.20;81.50;;;;;;4793345;29;20037;-90
2022/08/17 03:05:22;;;;;;;14.63;12.75;;;24.20;81.50;;;;;;4793062;29;20050;-89
2022/08/17 03:07:51;;;;;;;14.63;13.13;;;24.20;81.60;;;;;;4792154;29;20022;-88
2022/08/17 03:10:18;;;;;;;13.65;12.25;;;24.10;81.70;;;;;;4791408;29;20050;-88
2022/08/17 03:12:50;;;;;;;13.98;12.60;;;24.10;81.80;;;;;;4791867;29;20065;-89
2022/08/17 03:15:25;;;;;;;16.83;15.13;;;24.10;81.80;;;;;;4792292;29;20043;-89
2022/08/17 03:17:51;;;;;;;14.50;13.05;;;24.00;82.00;;;;;;4791964;29;20037;-89
2022/08/17 03:20:21;;;;;;;14.20;12.80;;;23.90;82.20;;;;;;4791901;29;20030;-90
2022/08/17 03:22:54;;;;;;;14.35;12.95;;;24.00;82.20;;;;;;4792367;29;20042;-87
2022/08/17 03:25:44;;;;;;;14.65;13.15;;;24.00;82.20;;;;;;4777555;29;20023;-90
2022/08/17 03:28:16;;;;;;;14.52;13.05;;;24.00;82.20;;;;;;4786923;29;20063;-89
2022/08/17 03:30:44;;;;;;;15.00;13.60;;;23.90;82.20;;;;;;4777660;29;20046;-89
2022/08/17 03:33:12;;;;;;;14.60;12.88;;;24.00;82.20;;;;;;4791773;29;20476;-88
2022/08/17 03:35:49;;;;;;;14.73;13.23;;;23.90;82.10;;;;;;4792249;29;20026;-88
2022/08/17 03:38:28;;;;;;;15.70;14.02;;;24.00;82.00;;;;;;4791555;29;20474;-89
2022/08/17 03:40:54;;;;;;;14.15;12.93;;;23.90;82.20;;;;;;4791721;29;20031;-90
2022/08/17 03:43:31;;;;;;;15.82;14.18;;;23.80;82.30;;;;;;4807682;29;20066;-89
2022/08/17 03:57:30;;;;;;;14.75;13.45;;;23.70;82.80;;;;;;4807947;29;20121;-90
2022/08/17 03:59:57;;;;;;;14.27;12.85;;;23.60;83.10;;;;;;4792130;29;20023;-88
2022/08/17 04:02:35;;;;;;;14.10;12.77;;;23.60;83.10;;;;;;4791053;29;20027;-90
2022/08/17 04:05:06;;;;;;;17.55;15.73;;;23.70;83.10;;;;;;4792296;29;20118;-90
2022/08/17 04:07:32;;;;;;;15.48;13.93;;;23.70;83.20;;;;;;4796021;29;20068;-88
2022/08/17 04:10:01;;;;;;;16.10;14.15;;;23.70;83.30;;;;;;4795944;29;20062;-88
2022/08/17 04:12:48;;;;;;;15.85;13.27;;;23.60;83.40;;;;;;4795248;29;20034;-88
2022/08/17 04:15:17;;;;;;;14.75;13.35;;;23.60;83.70;;;;;;4795805;29;20027;-89
2022/08/17 04:17:52;;;;;;;16.38;14.13;;;23.60;83.80;;;;;;4795991;29;20142;-91
2022/08/17 04:20:22;;;;;;;14.90;13.55;;;23.60;83.90;;;;;;4796230;29;20175;-88
2022/08/17 04:23:14;;;;;;;;;;;;;;;;;;;;;
2022/08/17 04:25:49;;;;;;;15.20;13.70;;;23.70;83.80;;;;;;4811469;29;20031;-89
2022/08/17 04:28:17;;;;;;;14.95;12.88;;;23.60;83.70;;;;;;4795652;29;20027;-89
2022/08/17 04:30:47;;;;;;;15.77;14.27;;;23.60;83.90;;;;;;4795557;29;20381;-88
2022/08/17 04:33:16;;;;;;;14.70;13.37;;;23.60;83.80;;;;;;4795603;29;20461;-87
2022/08/17 04:35:58;;;;;;;13.98;12.68;;;23.50;83.80;;;;;;4795507;29;20454;-89
2022/08/17 04:38:29;;;;;;;13.00;11.27;;;23.60;83.80;;;;;;4795454;29;20031;-90
2022/08/17 04:44:00;;;;;;;13.48;12.25;;;23.60;83.50;;;;;;4811673;29;20129;-90
2022/08/17 04:46:34;;;;;;;14.90;13.18;;;23.60;83.30;;;;;;4795529;29;20073;-89
2022/08/17 04:49:06;;;;;;;14.27;12.70;;;23.70;83.10;;;;;;4796472;29;20034;-89
2022/08/17 04:51:40;;;;;;;12.75;11.55;;;23.70;83.00;;;;;;4795921;29;20019;-89
2022/08/17 04:54:10;;;;;;;13.25;11.98;;;23.70;82.90;;;;;;4797859;29;20027;-89
2022/08/17 04:56:36;;;;;;;14.20;12.30;;;23.70;82.70;;;;;;4803353;29;20027;-84
2022/08/17 04:59:07;;;;;;;13.25;11.85;;;23.70;82.60;;;;;;4814583;29;20035;-85
2022/08/17 05:01:38;;;;;;;11.80;10.60;;;23.70;82.50;;;;;;4816165;29;20282;-86
2022/08/17 05:04:15;;;;;;;12.20;11.00;;;23.80;82.40;;;;;;4816334;29;20030;-85
2022/08/17 05:06:41;;;;;;;12.30;11.15;;;23.80;82.10;;;;;;4815085;29;20038;-87
2022/08/17 05:09:07;;;;;;;11.07;10.02;;;23.80;81.90;;;;;;4815441;29;20030;-85
2022/08/17 05:11:33;;;;;;;12.75;10.90;;;23.80;82.00;;;;;;4824050;29;20051;-85
2022/08/17 05:13:59;;;;;;;12.82;11.57;;;23.80;81.80;;;;;;4794178;29;20078;-85
2022/08/17 05:16:27;;;;;;;13.38;12.15;;;23.80;81.80;;;;;;4778753;29;20514;-85
2022/08/17 05:18:54;;;;;;;13.48;11.35;;;23.80;81.70;;;;;;4792533;29;20019;-86
2022/08/17 05:21:21;;;;;;;11.93;10.80;;;23.80;81.50;;;;;;4793056;29;20050;-85
2022/08/17 05:23:47;;;;;;;14.43;11.02;;;23.80;81.60;;;;;;4793799;29;20037;-85
2022/08/17 05:26:17;;;;;;;12.23;11.00;;;23.80;81.60;;;;;;4793498;29;20026;-85
2022/08/17 05:28:42;;;;;;;12.23;11.02;;;23.80;81.70;;;;;;4793326;29;20026;-85
2022/08/17 05:31:09;;;;;;;11.65;10.38;;;23.80;81.40;;;;;;4778515;29;20039;-85
2022/08/17 05:33:38;;;;;;;11.50;10.43;;;23.90;81.10;;;;;;4793712;29;20035;-84
2022/08/17 05:36:09;;;;;;;11.32;10.23;;;24.00;81.00;;;;;;4792787;29;20104;-85
2022/08/17 05:38:38;;;;;;;13.25;11.65;;;23.90;80.80;;;;;;4793042;29;20114;-85
2022/08/17 05:41:09;;;;;;;12.45;11.25;;;24.00;80.50;;;;;;4793415;29;20026;-87
2022/08/17 05:43:47;;;;;;;11.57;10.48;;;24.00;80.40;;;;;;4792514;29;20060;-85
2022/08/17 05:46:24;;;;;;;10.55;9.60;;;24.00;80.40;;;;;;4792402;29;20113;-86
2022/08/17 05:49:00;;;;;;;10.90;9.90;;;24.00;80.40;;;;;;4793032;29;20022;-86
2022/08/17 05:51:39;;;;;;;10.35;9.35;;;24.00;80.50;;;;;;4792979;29;20023;-85
2022/08/17 05:54:14;;;;;;;10.18;9.13;;;24.10;80.60;;;;;;4792376;29;20465;-85
2022/08/17 05:56:52;;;;;;;10.82;9.48;;;24.10;80.40;;;;;;4792645;29;20027;-84
2022/08/17 05:59:48;;;;;;;10.45;9.10;;;24.20;80.20;;;;;;4809285;29;20030;-85
2022/08/17 06:02:40;;;;;;;10.77;9.75;;;24.30;80.40;;;;;;4808937;29;20057;-87
2022/08/17 06:05:25;;;;;;;12.30;11.10;;;24.30;80.30;;;;;;4792627;29;20035;-85
2022/08/17 06:08:09;;;;;;;11.32;10.23;;;24.30;80.00;;;;;;4807641;29;20084;-85
2022/08/17 06:10:57;;;;;;;11.80;10.63;;;24.30;79.90;;;;;;4791169;29;20046;-86
2022/08/17 06:13:29;;;;;;;11.70;10.65;;;24.30;79.50;;;;;;4792182;29;20034;-85
2022/08/17 06:16:03;;;;;;;12.65;11.55;;;24.30;79.60;;;;;;4792098;29;20023;-86
2022/08/17 06:18:43;;;;;;;11.90;10.80;;;24.30;79.40;;;;;;4791930;29;20389;-86
2022/08/17 06:21:13;;;;;;;12.02;10.93;;;24.30;79.40;;;;;;4792518;29;20038;-89
2022/08/17 06:23:46;;;;;;;12.15;10.95;;;24.20;79.50;;;;;;4793262;29;20482;-92
2022/08/17 06:26:36;;;;;;;13.07;11.65;;;24.10;80.30;;;;;;4793450;29;20066;-88
2022/08/17 06:29:38;;;;;;;13.63;10.32;;;24.00;79.90;;;;;;4792713;29;20034;-90
2022/08/17 06:32:15;;;;;;;13.85;11.75;;;24.00;80.50;;;;;;4793351;29;20023;-89
2022/08/17 06:34:47;;;;;;;13.18;11.90;;;24.00;81.00;;;;;;4779135;29;20086;-89
2022/08/17 06:37:27;;;;;;;11.07;10.15;;;23.90;81.50;;;;;;4778521;29;20033;-89
2022/08/17 06:40:17;;;;;;;11.85;10.65;;;23.80;81.80;;;;;;4809447;29;20030;-90
2022/08/17 06:43:21;;;;;;;14.55;11.90;;;23.90;82.20;;;;;;4792761;29;20133;-89
2022/08/17 06:46:05;;;;;;;14.20;12.50;;;23.80;82.50;;;;;;4792852;29;20111;-90
2022/08/17 06:48:56;;;;;;;12.57;11.35;;;23.80;83.00;;;;;;4794127;29;20048;-89
2022/08/17 06:51:34;;;;;;;13.57;12.10;;;23.80;83.50;;;;;;4793519;29;20049;-89
2022/08/17 06:54:33;;;;;;;13.55;12.32;;;23.80;83.70;;;;;;4793293;29;20077;-89
2022/08/17 06:57:13;;;;;;;14.90;13.40;;;23.90;83.60;;;;;;4793550;29;20037;-89
2022/08/17 06:59:44;;;;;;;;;;;23.90;83.90;;;;;;4793580;29;20031;-90
2022/08/17 07:02:28;;;;;;;;;;;;;;;;;;;;;
2022/08/17 07:05:00;;;;;;;15.73;14.15;;;23.90;84.00;;;;;;4809811;29;20023;-90
2022/08/17 07:10:18;;;;;;;17.30;15.70;;;23.80;84.80;;;;;;4813935;29;20065;-90
2022/08/17 07:12:51;;;;;;;15.57;14.18;;;23.80;84.70;;;;;;4814558;29;20027;-90
2022/08/17 07:15:25;;;;;;;17.98;16.08;;;23.80;85.20;;;;;;4814602;29;20019;-90
2022/08/17 07:17:56;;;;;;;18.17;16.40;;;23.80;85.40;;;;;;4804421;29;20058;-90
2022/08/17 07:21:01;;;;;;;18.05;16.42;;;23.80;86.00;;;;;;4796760;29;20031;-92
2022/08/17 07:23:49;;;;;;;19.35;16.13;;;23.80;85.90;;;;;;4820250;29;20097;-90
2022/08/17 07:26:17;;;;;;;18.90;16.98;;;23.70;86.30;;;;;;4807816;29;20022;-91
2022/08/17 07:29:11;;;;;;;17.92;15.38;;;23.60;86.30;;;;;;4802826;29;20033;-91
2022/08/17 07:32:07;;;;;;;;;;;;;;;;;;;;;
2022/08/17 07:35:16;;;;;;;16.10;14.68;;;23.70;87.30;;;;;;4809639;29;20114;-90
2022/08/17 07:38:21;;;;;;;17.35;15.52;;;23.80;87.60;;;;;;4767135;29;20043;-92
2022/08/17 07:41:00;;;;;;;18.85;17.00;;;23.90;87.90;;;;;;4791953;29;20350;-91
2022/08/17 07:43:51;;;;;;;;;;;;;;;;;;;;;
2022/08/17 07:49:20;;;;;;;19.38;17.60;;;23.90;87.50;;;;;;4808967;29;20146;-91
2022/08/17 07:51:54;;;;;;;19.42;17.42;;;23.80;88.00;;;;;;4792286;29;20087;-91
2022/08/17 07:54:35;;;;;;;20.15;17.73;;;23.80;88.40;;;;;;4792484;29;20023;-89
2022/08/17 07:57:15;;;;;;;18.60;16.83;;;23.80;88.40;;;;;;4791693;29;20030;-89
2022/08/17 07:59:59;;;;;;;19.23;17.13;;;23.90;88.20;;;;;;4807333;29;20419;-89
2022/08/17 08:02:33;;;;;;;19.17;17.23;;;23.90;88.10;;;;;;4791197;29;20031;-89
2022/08/17 08:05:26;;;;;;;19.85;17.88;;;24.00;88.30;;;;;;4791490;29;20030;-89
2022/08/17 08:08:41;;;;;;;21.92;19.70;;;23.90;88.20;;;;;;4787899;29;20035;-92
2022/08/17 08:11:29;;;;;;;20.08;18.10;;;23.90;88.10;;;;;;4769392;30;20112;-90
2022/08/17 08:14:32;;;;;;;19.08;17.15;;;23.90;88.20;;;;;;4770440;30;20036;-91
2022/08/17 08:17:06;;;;;;;19.58;17.60;;;23.90;88.40;;;;;;4804987;29;20035;-93
2022/08/17 08:19:45;;;;;;;18.90;17.17;;;23.90;88.40;;;;;;4793936;29;20023;-93
2022/08/17 08:22:46;;;;;;;20.58;18.67;;;24.00;88.40;;;;;;4792745;29;20473;-94
2022/08/17 08:26:26;;;;;;;21.88;19.77;;;24.00;88.20;;;;;;4791890;29;20049;-93
2022/08/17 08:29:02;;;;;;;19.73;17.90;;;24.00;88.50;;;;;;4752673;30;20042;-93
2022/08/17 08:32:03;;;;;;;;;;;;;;;;;;;;;
2022/08/17 08:34:45;;;;;;;19.20;17.30;;;24.00;89.20;;;;;;4800953;29;20043;-92
2022/08/17 08:37:27;;;;;;;19.58;17.67;;;24.10;88.90;;;;;;4794781;29;20050;-94
2022/08/17 08:40:14;;;;;;;17.77;16.10;;;24.20;88.50;;;;;;4794075;29;20050;-93
2022/08/17 08:43:20;;;;;;;17.52;15.85;;;24.20;87.90;;;;;;4794439;29;20125;-93
2022/08/17 08:46:49;;;;;;;;;;;;;;;;;;;;;
2022/08/17 08:49:44;;;;;;;17.77;16.10;;;24.30;86.90;;;;;;4806044;29;20027;-94
2022/08/17 08:52:48;;;;;;;18.27;15.07;;;24.40;86.80;;;;;;4794318;29;20025;-93
2022/08/17 08:55:39;;;;;;;;;;;;;;;;;;;;;
2022/08/17 08:58:37;;;;;;;18.10;16.30;;;24.60;87.50;;;;;;4812272;29;20026;-92
2022/08/17 09:01:42;;;;;;;;;;;;;;;;;;;;;
2022/08/17 09:04:52;;;;;;;18.92;17.23;;;24.70;87.80;;;;;;4813146;29;20041;-94
2022/08/17 09:11:08;;;;;;;;;;;;;;;;;;;;;
2022/08/17 09:14:24;;;;;;;;;;;;;;;;;;;;;
2022/08/17 09:17:17;;;;;;;21.33;19.33;;;24.80;88.30;;;;;;4814557;29;20109;-93
2022/08/17 09:30:08;;;;;;;22.38;20.20;;;24.40;89.50;;;;;;4826993;29;19903;-94
2022/08/17 09:33:05;;;;;;;20.23;18.02;;;24.30;89.50;;;;;;4817902;29;20060;-94
2022/08/17 09:36:33;;;;;;;;;;;;;;;;;;;;;
2022/08/17 09:39:47;;;;;;;;;;;;;;;;;;;;;
2022/08/17 09:43:02;;;;;;;19.15;17.20;;;24.20;89.70;;;;;;4809658;29;20121;-93
2022/08/17 09:48:59;;;;;;;;;;;;;;;;;;;;;
2022/08/17 09:52:10;;;;;;;18.30;16.60;;;24.20;89.10;;;;;;4796883;29;20044;-94
2022/08/17 09:54:59;;;;;;;;;;;;;;;;;;;;;
2022/08/17 09:57:52;;;;;;;16.92;15.18;;;24.30;88.80;;;;;;4811174;29;20118;-92
2022/08/17 10:00:28;;;;;;;18.00;16.33;;;24.40;88.90;;;;;;4795247;29;20059;-93
2022/08/17 10:03:08;;;;;;;13.57;12.27;;;24.40;88.70;;;;;;4795098;29;20046;-93
2022/08/17 10:06:08;;;;;;;15.93;14.40;;;24.50;88.70;;;;;;4794468;29;20150;-91
2022/08/17 10:08:57;;;;;;;13.57;12.40;;;24.50;88.50;;;;;;4795491;29;20038;-92
2022/08/17 10:14:47;;;;;;;14.45;13.05;;;24.70;88.50;;;;;;4811028;29;20061;-93
2022/08/17 10:17:41;;;;;;;;;;;;;;;;;;;;;
2022/08/17 10:26:11;;;;;;;14.88;13.48;;;25.00;88.00;;;;;;4812097;29;20037;-91
2022/08/17 10:26:39;;;;;;;13.55;12.25;;;25.20;87.10;;;;;;4811982;29;20041;-92
2022/08/17 10:29:30;;;;;;;;;;;;;;;;;;;;;
2022/08/17 10:32:09;;;;;;;13.85;12.55;;;25.30;86.80;;;;;;4812601;29;20098;-94
2022/08/17 10:34:57;;;;;;;;;;;;;;;;;;;;;
2022/08/17 10:37:41;;;;;;;13.70;12.38;;;25.40;86.60;;;;;;4810941;29;20114;-93
2022/08/17 10:40:35;;;;;;;13.15;11.95;;;25.40;85.80;;;;;;4795379;29;20465;-93
2022/08/17 10:43:29;;;;;;;12.00;10.98;;;25.50;85.80;;;;;;4796050;29;20035;-93
2022/08/17 10:46:14;;;;;;;15.77;12.15;;;25.70;86.10;;;;;;4799291;29;20023;-94
2022/08/17 10:49:12;;;;;;;;;;;;;;;;;;;;;
2022/08/17 10:51:41;;;;;;;13.50;12.30;;;25.90;86.10;;;;;;4812450;29;20110;-92
2022/08/17 10:54:47;;;;;;;12.50;11.40;;;25.90;85.90;;;;;;4780461;29;20038;-91
2022/08/17 10:57:43;;;;;;;14.25;12.57;;;25.90;85.90;;;;;;4787306;29;20066;-93
2022/08/17 11:00:28;;;;;;;;;;;;;;;;;;;;;
2022/08/17 11:06:31;;;;;;;13.27;11.95;;;26.00;85.80;;;;;;4810045;29;20042;-93
2022/08/17 11:09:12;;;;;;;13.82;12.50;;;26.00;85.60;;;;;;4808832;29;20050;-93
2022/08/17 11:11:49;;;;;;;;;;;26.00;85.60;;;;;;4794618;29;20071;-94
2022/08/17 11:14:38;;;;;;;14.18;12.88;;;25.90;85.60;;;;;;4810765;29;19912;-93
2022/08/17 11:17:23;;;;;;;14.07;12.88;;;25.90;85.80;;;;;;4793994;29;20034;-93
2022/08/17 11:19:58;;;;;;;15.10;13.70;;;25.90;86.70;;;;;;4795124;29;20347;-92
2022/08/17 11:22:56;;;;;;;14.80;13.50;;;25.90;86.00;;;;;;4795146;29;20023;-93
2022/08/17 11:26:09;;;;;;;15.75;14.25;;;25.90;86.10;;;;;;4795050;29;20042;-92
2022/08/17 11:29:00;;;;;;;17.15;15.65;;;25.90;86.50;;;;;;4794544;29;20019;-92
2022/08/17 11:31:34;;;;;;;18.02;16.33;;;25.70;86.90;;;;;;4795474;29;20033;-94
2022/08/17 11:34:22;;;;;;;;;;;;;;;;;;;;;
2022/08/17 11:37:27;;;;;;;;;;;;;;;;;;;;;
2022/08/17 11:43:35;;;;;;;17.75;16.15;;;25.60;88.20;;;;;;4829520;29;20051;-91
2022/08/17 11:46:26;;;;;;;17.77;16.23;;;25.60;88.60;;;;;;4814483;29;20022;-91
2022/08/17 11:52:44;;;;;;;18.38;16.60;;;25.50;88.50;;;;;;4819655;29;20033;-91
2022/08/17 11:55:40;;;;;;;;;;;;;;;;;;;;;
2022/08/17 11:58:33;;;;;;;17.70;16.00;;;25.40;89.00;;;;;;4818537;29;20435;-91
2022/08/17 12:01:55;;;;;;;;;;;;;;;;;;;;;
2022/08/17 12:14:28;;;;;;;19.85;18.02;;;25.00;90.00;;;;;;4778038;29;20062;-90
2022/08/17 12:17:55;;;;;;;;;;;;;;;;;;;;;
2022/08/17 12:21:10;;;;;;;18.95;17.25;;;24.80;90.50;;;;;;4795817;29;20045;-90
2022/08/17 12:24:31;;;;;;;;;;;;;;;;;;;;;
2022/08/17 12:27:04;;;;;;;18.42;16.73;;;24.70;90.40;;;;;;4809207;29;20023;-84
2022/08/17 12:33:26;;;;;;;;;;;;;;;;;;;;;
2022/08/17 12:36:11;;;;;;;17.58;15.82;;;24.60;90.60;;;;;;4812202;29;20026;-91
2022/08/17 12:38:40;;;;;;;17.02;15.32;;;24.60;90.70;;;;;;4795599;29;20026;-89
2022/08/17 12:44:51;;;;;;;19.63;16.90;;;24.60;90.80;;;;;;4763158;30;20095;-89
2022/08/17 12:47:36;;;;;;;20.35;17.15;;;24.70;91.00;;;;;;4771307;30;20136;-89
2022/08/17 12:50:25;;;;;;;18.85;17.15;;;24.70;91.10;;;;;;4789118;29;20037;-89
2022/08/17 12:53:11;;;;;;;18.17;16.55;;;24.70;91.20;;;;;;4794530;29;20038;-90
2022/08/17 12:56:05;;;;;;;18.92;17.10;;;24.80;91.10;;;;;;4795816;29;20042;-89
2022/08/17 12:58:37;;;;;;;17.27;15.65;;;24.90;90.90;;;;;;4809251;29;20427;-91
2022/08/17 13:01:23;;;;;;;17.35;15.85;;;24.90;91.00;;;;;;4795527;29;20042;-89
2022/08/17 13:04:39;;;;;;;17.10;15.63;;;24.80;90.90;;;;;;4796257;29;20030;-91
2022/08/17 13:07:53;;;;;;;;;;;;;;;;;;;;;
2022/08/17 13:14:18;;;;;;;;;;;;;;;;;;;;;
2022/08/17 13:17:13;;;;;;;17.80;16.02;;;24.80;91.00;;;;;;4809036;29;20118;-93
2022/08/17 13:20:16;;;;;;;;;;;;;;;;;;;;;
2022/08/17 13:26:26;;;;;;;18.05;16.48;;;24.70;91.10;;;;;;4775308;29;20030;-91
2022/08/17 13:29:09;;;;;;;18.65;16.95;;;24.70;91.10;;;;;;4796268;29;20030;-89
2022/08/17 13:32:24;;;;;;;18.30;16.63;;;24.70;91.10;;;;;;4796662;29;20026;-91
2022/08/17 13:35:38;;;;;;;18.55;16.77;;;24.70;91.30;;;;;;4787723;29;20034;-90
2022/08/17 13:39:03;;;;;;;18.75;16.85;;;24.70;91.50;;;;;;4799404;29;20034;-90
2022/08/17 13:48:37;;;;;;;;;;;;;;;;;;;;;
2022/08/17 13:51:53;;;;;;;;;;;;;;;;;;;;;
2022/08/17 13:54:36;;;;;;;20.23;18.33;;;24.80;92.00;;;;;;4767942;30;20068;-91
2022/08/17 13:57:21;;;;;;;20.70;18.90;;;24.90;91.80;;;;;;4797233;29;20035;-91
2022/08/17 14:00:44;;;;;;;19.52;17.70;;;24.70;91.70;;;;;;4811351;29;20120;-90
2022/08/17 14:03:14;;;;;;;20.40;18.40;;;24.70;91.80;;;;;;4807636;29;20084;-90
2022/08/17 14:05:44;;;;;;;22.80;20.60;;;24.60;91.80;;;;;;4797712;29;20019;-92
2022/08/17 14:08:14;;;;;;;;;;;24.60;92.00;;;;;;4803046;29;20037;-93
2022/08/17 14:17:59;;;;;;;20.17;18.30;;;24.60;92.10;;;;;;4792241;30;20050;-92
2022/08/17 14:20:34;;;;;;;21.80;19.77;;;24.60;92.00;;;;;;4760980;30;20107;-87
2022/08/17 14:23:20;;;;;;;;;;;;;;;;;;;;;
2022/08/17 14:26:14;;;;;;;20.08;18.17;;;24.70;92.20;;;;;;4794212;30;20517;-92
2022/08/17 14:28:40;;;;;;;20.98;19.08;;;24.70;92.40;;;;;;4760374;30;20059;-91
2022/08/17 14:31:13;;;;;;;21.70;19.70;;;24.90;92.40;;;;;;4761748;30;20031;-93
2022/08/17 14:33:49;;;;;;;20.90;18.90;;;24.80;92.40;;;;;;4762711;30;20100;-92
2022/08/17 14:36:15;;;;;;;21.50;19.55;;;24.90;92.50;;;;;;4776244;30;20069;-90
2022/08/17 14:38:43;;;;;;;21.73;19.70;;;24.90;92.50;;;;;;4775339;29;20043;-92
2022/08/17 14:41:57;;;;;;;22.25;20.15;;;25.10;92.40;;;;;;4780544;29;20509;-90
2022/08/17 14:45:08;;;;;;;;;;;;;;;;;;;;;
2022/08/17 14:50:55;;;;;;;23.25;20.95;;;25.30;92.20;;;;;;4787624;29;20075;-91
2022/08/17 14:53:24;;;;;;;22.17;20.15;;;25.40;92.00;;;;;;4796091;29;20458;-93
2022/08/17 14:55:55;;;;;;;22.10;20.08;;;25.50;91.90;;;;;;4793651;29;20050;-93
2022/08/17 15:02:44;;;;;;;21.27;19.35;;;25.50;91.70;;;;;;4759103;30;20117;-94
2022/08/17 15:08:15;;;;;;;21.45;19.60;;;25.70;91.90;;;;;;4755735;30;20087;-93
2022/08/17 15:11:12;;;;;;;23.40;21.30;;;25.80;91.50;;;;;;4804282;29;20074;-94
2022/08/17 15:14:09;;;;;;;23.33;21.13;;;25.90;91.00;;;;;;4780982;29;20034;-93
2022/08/17 15:16:49;;;;;;;;;;;;;;;;;;;;;
2022/08/17 15:19:29;;;;;;;21.77;19.83;;;25.80;90.90;;;;;;4810065;29;20483;-94
2022/08/17 15:21:55;;;;;;;23.02;20.92;;;25.80;90.70;;;;;;4764029;29;20033;-89
2022/08/17 15:24:21;;;;;;;21.42;19.40;;;25.70;90.70;;;;;;4806669;29;20101;-89
2022/08/17 15:26:46;;;;;;;22.10;20.10;;;25.80;90.80;;;;;;4806044;29;20026;-85
2022/08/17 15:29:13;;;;;;;21.85;20.00;;;25.80;90.80;;;;;;4789646;29;20059;-86
2022/08/17 15:31:39;;;;;;;22.92;20.92;;;25.90;90.90;;;;;;4807172;29;20023;-86
2022/08/17 15:34:04;;;;;;;21.50;19.63;;;25.90;90.90;;;;;;4790526;29;20521;-86
2022/08/17 15:36:32;;;;;;;22.85;20.88;;;26.00;90.80;;;;;;4776014;29;20038;-86
2022/08/17 15:38:58;;;;;;;22.00;20.10;;;26.00;90.70;;;;;;4790403;29;20027;-85
2022/08/17 15:41:26;;;;;;;22.38;20.33;;;26.20;90.70;;;;;;4806789;29;20054;-86
2022/08/17 15:43:53;;;;;;;21.80;19.77;;;26.20;90.60;;;;;;4806366;29;20030;-87
2022/08/17 15:46:21;;;;;;;22.10;20.15;;;26.20;90.50;;;;;;4790696;29;20027;-86
2022/08/17 15:48:49;;;;;;;21.60;19.65;;;26.30;90.60;;;;;;4790423;29;20118;-86
2022/08/17 15:51:20;;;;;;;24.08;21.88;;;26.30;90.40;;;;;;4806913;29;20060;-84
2022/08/17 15:53:49;;;;;;;24.25;22.15;;;26.40;90.50;;;;;;4790896;29;20030;-88
2022/08/17 15:56:15;;;;;;;25.92;23.52;;;26.40;90.40;;;;;;4807298;29;20023;-87
2022/08/17 15:58:43;;;;;;;23.60;21.27;;;26.40;90.40;;;;;;4790832;29;20034;-85
2022/08/17 16:01:10;;;;;;;21.02;19.23;;;26.40;90.40;;;;;;4791839;29;20042;-87
2022/08/17 16:03:36;;;;;;;22.48;20.05;;;26.40;90.70;;;;;;4811662;29;20035;-86
2022/08/17 16:06:02;;;;;;;21.77;19.77;;;26.40;90.30;;;;;;4812221;29;20110;-86
2022/08/17 16:08:28;;;;;;;22.05;20.05;;;26.40;90.40;;;;;;4812279;29;20054;-86
2022/08/17 16:10:57;;;;;;;21.27;19.35;;;26.40;90.40;;;;;;4796225;29;20476;-87
2022/08/17 16:13:23;;;;;;;21.98;19.90;;;26.50;90.30;;;;;;4803404;29;20031;-85
2022/08/17 16:15:49;;;;;;;23.30;21.10;;;26.50;90.10;;;;;;4812041;29;20051;-87
2022/08/17 16:18:15;;;;;;;22.48;20.38;;;26.40;90.00;;;;;;4799495;29;20023;-86
2022/08/17 16:20:42;;;;;;;24.38;22.08;;;26.40;90.10;;;;;;4830148;29;20015;-86
2022/08/17 16:23:10;;;;;;;24.38;22.08;;;26.40;90.10;;;;;;4832281;29;20039;-85
2022/08/17 16:25:36;;;;;;;25.33;23.02;;;26.30;90.10;;;;;;4812794;29;20075;-86
2022/08/17 16:28:02;;;;;;;24.65;22.17;;;26.20;90.10;;;;;;4795529;29;20084;-86